Weather at Eliporto esercito italiano

Public forecast

Using degrees Celsius for public forecast. Weather courtesy of forecast.io.

Closest aviation weather report (METAR) to Eliporto esercito italiano

Closest report is Bari Karol Wojtyła Airport, 5.9 nm (11.0 km) WNW.

2024/05/19 23:50 (retrieved 34 minutes ago)

LIBD 192350Z VRB02KT CAVOK 17/17 Q1011

Closest aviation forecast (TAF) to Eliporto esercito italiano

Forecast is more than 6 hours old.

Closest forecast is Foggia "Gino Lisa" Airport, 64.0 nm (118.4 km) WNW.

2024/05/19 18:00 Ammendment (retrieved 6 hours ago)

TAF AMD LIBF 192210Z 1918/2018 CNL